^^
No Wait Weather (KNEBELLE1) Station Historical Data
 
Daily Summary for November 19, 2019 Units:  English    Metric   Both
Daily Weekly Monthly Yearly Custom
  Current: High: Low: Average:
Temperature: 43.1 °F 47.1 °F 43.1 °F 45.6 °F
Dew Point: 38.6 °F 40.64 °F 38.49 °F 39.9 °F
Humidity: 84% 84% 78% 81%
Wind Speed: 0mph 0mph 0mph 0mph
Wind Gust: 0mph 5mph - -
WindCalm - - North
Pressure: 29.67 in 29.67 in 29.65 in -
Precipitation: 0 in      
Historical Graphs
 
 
Tabular Data for November 19, 2019
Time Temperature Dew Point Pressure Wind Wind Speed Wind Gust Humidity Rainfall Rate (Hourly) solar
00:00 46.8 °F 40.64 °F 29.66 in Calm   3 mph 79% 0 in WeatherCatV3.04B91 W/m2
00:05 47 °F 40.5 °F 29.66 in Calm     78% 0 in WeatherCatV3.04B91 W/m2
00:10 47.1 °F 40.6 °F 29.66 in Calm     78% 0 in WeatherCatV3.04B91 W/m2
00:15 47.1 °F 40.6 °F 29.65 in Calm   2 mph 78% 0 in WeatherCatV3.04B91 W/m2
00:20 47.1 °F 40.6 °F 29.65 in Calm   3 mph 78% 0 in WeatherCatV3.04B91 W/m2
00:25 47.1 °F 40.6 °F 29.65 in Calm   5 mph 78% 0 in WeatherCatV3.04B91 W/m2
00:30 47.1 °F 40.6 °F 29.66 in Calm   1 mph 78% 0 in WeatherCatV3.04B91 W/m2
00:35 47 °F 40.5 °F 29.66 in Calm   4 mph 78% 0 in WeatherCatV3.04B91 W/m2
00:40 46.8 °F 40.64 °F 29.66 in Calm   3 mph 79% 0 in WeatherCatV3.04B91 W/m2
00:45 46.5 °F 40.34 °F 29.66 in Calm     79% 0 in WeatherCatV3.04B91 W/m2
00:50 46.4 °F 40.57 °F 29.66 in Calm   1 mph 80% 0 in WeatherCatV3.04B91 W/m2
00:55 46 °F 40.18 °F 29.66 in Calm     80% 0 in WeatherCatV3.04B91 W/m2
01:00 45.7 °F 40.21 °F 29.66 in Calm   2 mph 81% 0 in WeatherCatV3.04B91 W/m2
01:05 45.4 °F 39.92 °F 29.66 in Calm   2 mph 81% 0 in WeatherCatV3.04B91 W/m2
01:10 45.1 °F 39.94 °F 29.66 in Calm   2 mph 82% 0 in WeatherCatV3.04B91 W/m2
01:15 44.8 °F 39.65 °F 29.67 in Calm   3 mph 82% 0 in WeatherCatV3.04B91 W/m2
01:20 44.5 °F 39.35 °F 29.67 in Calm     82% 0 in WeatherCatV3.04B91 W/m2
01:25 44.3 °F 39.16 °F 29.67 in Calm   2 mph 82% 0 in WeatherCatV3.04B91 W/m2
01:30 44.2 °F 39.06 °F 29.66 in Calm   2 mph 82% 0 in WeatherCatV3.04B91 W/m2
01:35 43.9 °F 39.08 °F 29.66 in Calm     83% 0 in WeatherCatV3.04B91 W/m2
01:40 43.8 °F 38.98 °F 29.66 in Calm     83% 0 in WeatherCatV3.04B91 W/m2
01:45 43.6 °F 38.78 °F 29.67 in Calm     83% 0 in WeatherCatV3.04B91 W/m2
01:50 43.3 °F 38.49 °F 29.67 in Calm     83% 0 in WeatherCatV3.04B91 W/m2
01:55 43.1 °F 38.6 °F 29.67 in Calm     84% 0 in WeatherCatV3.04B91 W/m2
Bellevue, Nebraska, USA
Compliments of Weather Underground - 1.75 mb